Metar Aviation Weather Data KMYR Myrtle Beach International

82°F Temp
70°F Dewpoint
66% Humidity
Temperature
13 MPH
21 KM/H
11 KTS
170°
Due South

Wind Speed
Partly Cloudy
Conditions
Pressure 1020.4 (hPa) - 30.13 (in)
Visibility 10.0 (mi) - 16.1 (km)

Current Conditions
KMYR
Myrtle Beach International 6 km (3.2 mi)
Metar :KMYR 151956Z COR 17011KT 10SM FEW039 28/21 A3013 RMK AO2 SLP204 T02780211
Mon 15th October 15:56 pm

Airport
  Metar Aviation API Data Provided by https://www.checkwx.com/ PHP scripts by weather34.com ©2018